sensor_id;sensor_type;location;lat;lon;timestamp;P1;durP1;ratioP1;P2;durP2;ratioP2
12288;SDS011;6207;49.308;7.336;2022-12-01T00:01:26;16.40;;;7.43;;
12288;SDS011;6207;49.308;7.336;2022-12-01T00:03:54;13.40;;;7.53;;
12288;SDS011;6207;49.308;7.336;2022-12-01T00:06:48;16.67;;;8.17;;
12288;SDS011;6207;49.308;7.336;2022-12-01T00:09:16;35.30;;;15.87;;
12288;SDS011;6207;49.308;7.336;2022-12-01T00:12:17;45.23;;;19.43;;
12288;SDS011;6207;49.308;7.336;2022-12-01T00:14:48;41.83;;;16.50;;
12288;SDS011;6207;49.308;7.336;2022-12-01T00:17:20;46.10;;;17.83;;
12288;SDS011;6207;49.308;7.336;2022-12-01T00:19:47;50.57;;;20.90;;
12288;SDS011;6207;49.308;7.336;2022-12-01T00:22:35;49.87;;;19.80;;
12288;SDS011;6207;49.308;7.336;2022-12-01T00:25:19;49.73;;;19.07;;
12288;SDS011;6207;49.308;7.336;2022-12-01T00:31:12;47.53;;;19.80;;
12288;SDS011;6207;49.308;7.336;2022-12-01T00:33:54;47.83;;;19.43;;
12288;SDS011;6207;49.308;7.336;2022-12-01T00:36:29;60.67;;;21.67;;
12288;SDS011;6207;49.308;7.336;2022-12-01T00:39:02;56.23;;;19.57;;
12288;SDS011;6207;49.308;7.336;2022-12-01T00:41:32;48.57;;;19.43;;
12288;SDS011;6207;49.308;7.336;2022-12-01T00:44:04;50.70;;;21.47;;
12288;SDS011;6207;49.308;7.336;2022-12-01T00:46:41;49.60;;;19.17;;
12288;SDS011;6207;49.308;7.336;2022-12-01T00:49:18;53.03;;;17.50;;
12288;SDS011;6207;49.308;7.336;2022-12-01T00:51:51;55.27;;;22.80;;
12288;SDS011;6207;49.308;7.336;2022-12-01T00:54:18;51.63;;;19.00;;
12288;SDS011;6207;49.308;7.336;2022-12-01T00:56:47;50.70;;;19.53;;
12288;SDS011;6207;49.308;7.336;2022-12-01T00:59:17;51.13;;;18.73;;
12288;SDS011;6207;49.308;7.336;2022-12-01T01:01:45;43.10;;;18.77;;
12288;SDS011;6207;49.308;7.336;2022-12-01T01:04:13;44.17;;;17.10;;
12288;SDS011;6207;49.308;7.336;2022-12-01T01:06:44;51.33;;;18.73;;
12288;SDS011;6207;49.308;7.336;2022-12-01T01:09:22;50.90;;;18.37;;
12288;SDS011;6207;49.308;7.336;2022-12-01T01:11:52;38.83;;;15.10;;
12288;SDS011;6207;49.308;7.336;2022-12-01T01:14:21;45.17;;;20.03;;
12288;SDS011;6207;49.308;7.336;2022-12-01T01:16:55;40.27;;;15.97;;
12288;SDS011;6207;49.308;7.336;2022-12-01T01:19:22;40.70;;;16.83;;
12288;SDS011;6207;49.308;7.336;2022-12-01T01:21:57;48.73;;;18.70;;
12288;SDS011;6207;49.308;7.336;2022-12-01T01:24:25;48.20;;;17.40;;
12288;SDS011;6207;49.308;7.336;2022-12-01T01:26:59;49.40;;;18.50;;
12288;SDS011;6207;49.308;7.336;2022-12-01T01:29:31;53.80;;;19.47;;
12288;SDS011;6207;49.308;7.336;2022-12-01T01:31:58;48.00;;;18.23;;
12288;SDS011;6207;49.308;7.336;2022-12-01T01:34:26;50.93;;;21.13;;
12288;SDS011;6207;49.308;7.336;2022-12-01T01:36:53;47.73;;;19.90;;
12288;SDS011;6207;49.308;7.336;2022-12-01T01:39:20;51.97;;;20.23;;
12288;SDS011;6207;49.308;7.336;2022-12-01T01:41:47;52.87;;;18.77;;
12288;SDS011;6207;49.308;7.336;2022-12-01T01:47:25;45.17;;;18.57;;
12288;SDS011;6207;49.308;7.336;2022-12-01T01:49:59;41.57;;;18.47;;
12288;SDS011;6207;49.308;7.336;2022-12-01T01:52:37;56.30;;;19.83;;
12288;SDS011;6207;49.308;7.336;2022-12-01T01:55:12;52.07;;;21.00;;
12288;SDS011;6207;49.308;7.336;2022-12-01T01:57:40;53.57;;;20.27;;
12288;SDS011;6207;49.308;7.336;2022-12-01T02:00:13;57.63;;;21.50;;
12288;SDS011;6207;49.308;7.336;2022-12-01T02:02:43;52.27;;;20.97;;
12288;SDS011;6207;49.308;7.336;2022-12-01T02:05:12;46.20;;;20.50;;
12288;SDS011;6207;49.308;7.336;2022-12-01T02:08:02;53.67;;;20.27;;
12288;SDS011;6207;49.308;7.336;2022-12-01T02:10:37;51.50;;;21.50;;
12288;SDS011;6207;49.308;7.336;2022-12-01T02:16:25;45.03;;;19.30;;
12288;SDS011;6207;49.308;7.336;2022-12-01T02:19:22;52.77;;;21.50;;
12288;SDS011;6207;49.308;7.336;2022-12-01T02:22:18;46.93;;;18.63;;
12288;SDS011;6207;49.308;7.336;2022-12-01T02:25:25;47.90;;;18.83;;
12288;SDS011;6207;49.308;7.336;2022-12-01T02:31:15;46.10;;;19.00;;
12288;SDS011;6207;49.308;7.336;2022-12-01T02:33:50;45.27;;;18.13;;
12288;SDS011;6207;49.308;7.336;2022-12-01T02:36:27;44.43;;;19.13;;
12288;SDS011;6207;49.308;7.336;2022-12-01T02:39:05;43.00;;;20.30;;
12288;SDS011;6207;49.308;7.336;2022-12-01T02:41:51;45.60;;;20.07;;
12288;SDS011;6207;49.308;7.336;2022-12-01T02:44:29;38.23;;;18.73;;
12288;SDS011;6207;49.308;7.336;2022-12-01T02:47:01;39.33;;;18.53;;
12288;SDS011;6207;49.308;7.336;2022-12-01T02:49:46;44.40;;;18.03;;
12288;SDS011;6207;49.308;7.336;2022-12-01T02:52:16;45.13;;;18.17;;
12288;SDS011;6207;49.308;7.336;2022-12-01T02:54:46;43.57;;;17.80;;
12288;SDS011;6207;49.308;7.336;2022-12-01T02:57:14;46.63;;;19.73;;
12288;SDS011;6207;49.308;7.336;2022-12-01T02:59:43;50.67;;;22.33;;
12288;SDS011;6207;49.308;7.336;2022-12-01T03:02:34;39.23;;;18.83;;
12288;SDS011;6207;49.308;7.336;2022-12-01T03:05:32;45.27;;;20.80;;
12288;SDS011;6207;49.308;7.336;2022-12-01T03:08:31;49.00;;;21.10;;
12288;SDS011;6207;49.308;7.336;2022-12-01T03:11:11;38.97;;;17.77;;
12288;SDS011;6207;49.308;7.336;2022-12-01T03:13:56;51.27;;;18.13;;
12288;SDS011;6207;49.308;7.336;2022-12-01T03:16:49;42.43;;;18.97;;
12288;SDS011;6207;49.308;7.336;2022-12-01T03:22:35;45.20;;;17.47;;
12288;SDS011;6207;49.308;7.336;2022-12-01T03:25:07;51.20;;;18.83;;
12288;SDS011;6207;49.308;7.336;2022-12-01T03:27:39;46.13;;;17.87;;
12288;SDS011;6207;49.308;7.336;2022-12-01T03:30:30;38.33;;;17.23;;
12288;SDS011;6207;49.308;7.336;2022-12-01T03:33:02;42.73;;;18.53;;
12288;SDS011;6207;49.308;7.336;2022-12-01T03:35:37;40.73;;;17.93;;
12288;SDS011;6207;49.308;7.336;2022-12-01T03:38:11;36.87;;;18.17;;
12288;SDS011;6207;49.308;7.336;2022-12-01T03:40:48;42.87;;;18.57;;
12288;SDS011;6207;49.308;7.336;2022-12-01T03:43:20;47.37;;;18.57;;
12288;SDS011;6207;49.308;7.336;2022-12-01T03:46:08;36.33;;;17.30;;
12288;SDS011;6207;49.308;7.336;2022-12-01T03:48:47;41.43;;;17.80;;
12288;SDS011;6207;49.308;7.336;2022-12-01T03:51:29;37.57;;;17.23;;
12288;SDS011;6207;49.308;7.336;2022-12-01T03:57:02;39.93;;;17.33;;
12288;SDS011;6207;49.308;7.336;2022-12-01T03:59:34;39.57;;;18.10;;
12288;SDS011;6207;49.308;7.336;2022-12-01T04:02:05;44.97;;;19.80;;
12288;SDS011;6207;49.308;7.336;2022-12-01T04:04:33;35.13;;;16.90;;
12288;SDS011;6207;49.308;7.336;2022-12-01T04:07:00;38.27;;;19.97;;
12288;SDS011;6207;49.308;7.336;2022-12-01T04:09:28;31.37;;;16.70;;
12288;SDS011;6207;49.308;7.336;2022-12-01T04:11:55;32.83;;;18.07;;
12288;SDS011;6207;49.308;7.336;2022-12-01T04:14:40;35.27;;;17.50;;
12288;SDS011;6207;49.308;7.336;2022-12-01T04:17:07;40.47;;;18.70;;
12288;SDS011;6207;49.308;7.336;2022-12-01T04:19:34;36.03;;;18.97;;
12288;SDS011;6207;49.308;7.336;2022-12-01T04:22:02;42.57;;;17.90;;
12288;SDS011;6207;49.308;7.336;2022-12-01T04:24:29;39.77;;;18.60;;
12288;SDS011;6207;49.308;7.336;2022-12-01T04:26:56;44.63;;;18.43;;
12288;SDS011;6207;49.308;7.336;2022-12-01T04:29:23;38.37;;;18.90;;
12288;SDS011;6207;49.308;7.336;2022-12-01T04:31:50;37.13;;;18.97;;
12288;SDS011;6207;49.308;7.336;2022-12-01T04:34:17;31.00;;;18.80;;
12288;SDS011;6207;49.308;7.336;2022-12-01T04:36:44;44.03;;;20.60;;
12288;SDS011;6207;49.308;7.336;2022-12-01T04:39:11;43.13;;;21.60;;
12288;SDS011;6207;49.308;7.336;2022-12-01T04:41:39;37.47;;;18.60;;
12288;SDS011;6207;49.308;7.336;2022-12-01T04:44:07;49.80;;;20.87;;
12288;SDS011;6207;49.308;7.336;2022-12-01T04:46:36;42.53;;;19.87;;
12288;SDS011;6207;49.308;7.336;2022-12-01T04:49:03;37.43;;;18.70;;
12288;SDS011;6207;49.308;7.336;2022-12-01T04:51:31;41.43;;;20.10;;
12288;SDS011;6207;49.308;7.336;2022-12-01T04:53:58;42.93;;;20.70;;
12288;SDS011;6207;49.308;7.336;2022-12-01T04:56:28;38.23;;;19.30;;
12288;SDS011;6207;49.308;7.336;2022-12-01T04:58:55;38.07;;;19.30;;
12288;SDS011;6207;49.308;7.336;2022-12-01T05:01:22;44.77;;;19.77;;
12288;SDS011;6207;49.308;7.336;2022-12-01T05:03:49;41.73;;;20.33;;
12288;SDS011;6207;49.308;7.336;2022-12-01T05:06:17;41.80;;;20.70;;
12288;SDS011;6207;49.308;7.336;2022-12-01T05:08:46;41.93;;;20.73;;
12288;SDS011;6207;49.308;7.336;2022-12-01T05:11:14;40.60;;;19.00;;
12288;SDS011;6207;49.308;7.336;2022-12-01T05:13:43;36.17;;;19.17;;
12288;SDS011;6207;49.308;7.336;2022-12-01T05:16:15;41.00;;;18.93;;
12288;SDS011;6207;49.308;7.336;2022-12-01T05:18:47;34.53;;;17.90;;
12288;SDS011;6207;49.308;7.336;2022-12-01T05:21:16;36.93;;;18.17;;
12288;SDS011;6207;49.308;7.336;2022-12-01T05:23:43;37.17;;;18.33;;
12288;SDS011;6207;49.308;7.336;2022-12-01T05:26:11;40.67;;;20.03;;
12288;SDS011;6207;49.308;7.336;2022-12-01T05:28:37;32.23;;;16.43;;
12288;SDS011;6207;49.308;7.336;2022-12-01T05:31:06;25.87;;;15.90;;
12288;SDS011;6207;49.308;7.336;2022-12-01T05:33:33;28.80;;;16.80;;
12288;SDS011;6207;49.308;7.336;2022-12-01T05:36:00;30.87;;;17.23;;
12288;SDS011;6207;49.308;7.336;2022-12-01T05:38:27;32.93;;;18.53;;
12288;SDS011;6207;49.308;7.336;2022-12-01T05:40:54;31.53;;;18.60;;
12288;SDS011;6207;49.308;7.336;2022-12-01T05:43:22;28.77;;;15.47;;
12288;SDS011;6207;49.308;7.336;2022-12-01T05:45:55;22.70;;;15.60;;
12288;SDS011;6207;49.308;7.336;2022-12-01T05:48:22;26.93;;;17.47;;
12288;SDS011;6207;49.308;7.336;2022-12-01T05:50:50;27.50;;;17.63;;
12288;SDS011;6207;49.308;7.336;2022-12-01T05:53:17;26.97;;;16.67;;
12288;SDS011;6207;49.308;7.336;2022-12-01T05:55:44;31.97;;;17.87;;
12288;SDS011;6207;49.308;7.336;2022-12-01T05:58:12;25.17;;;16.20;;
12288;SDS011;6207;49.308;7.336;2022-12-01T06:00:39;32.10;;;18.47;;
12288;SDS011;6207;49.308;7.336;2022-12-01T06:03:11;27.30;;;16.73;;
12288;SDS011;6207;49.308;7.336;2022-12-01T06:05:39;29.10;;;17.37;;
12288;SDS011;6207;49.308;7.336;2022-12-01T06:08:06;24.57;;;16.53;;
12288;SDS011;6207;49.308;7.336;2022-12-01T06:10:33;26.97;;;17.13;;
12288;SDS011;6207;49.308;7.336;2022-12-01T06:12:59;27.43;;;16.97;;
12288;SDS011;6207;49.308;7.336;2022-12-01T06:15:26;26.70;;;17.90;;
12288;SDS011;6207;49.308;7.336;2022-12-01T06:17:53;22.73;;;16.33;;
12288;SDS011;6207;49.308;7.336;2022-12-01T06:20:24;20.33;;;15.17;;
12288;SDS011;6207;49.308;7.336;2022-12-01T06:22:51;21.87;;;15.40;;
12288;SDS011;6207;49.308;7.336;2022-12-01T06:25:19;26.77;;;17.77;;
12288;SDS011;6207;49.308;7.336;2022-12-01T06:27:46;25.50;;;16.13;;
12288;SDS011;6207;49.308;7.336;2022-12-01T06:30:13;24.93;;;16.63;;
12288;SDS011;6207;49.308;7.336;2022-12-01T06:32:39;25.03;;;16.53;;
12288;SDS011;6207;49.308;7.336;2022-12-01T06:35:06;25.83;;;17.73;;
12288;SDS011;6207;49.308;7.336;2022-12-01T06:37:34;25.27;;;19.13;;
12288;SDS011;6207;49.308;7.336;2022-12-01T06:40:00;30.43;;;20.00;;
12288;SDS011;6207;49.308;7.336;2022-12-01T06:42:28;23.73;;;16.93;;
12288;SDS011;6207;49.308;7.336;2022-12-01T06:44:56;27.37;;;18.80;;
12288;SDS011;6207;49.308;7.336;2022-12-01T06:47:23;28.87;;;18.93;;
12288;SDS011;6207;49.308;7.336;2022-12-01T06:49:50;20.17;;;16.67;;
12288;SDS011;6207;49.308;7.336;2022-12-01T06:52:17;29.20;;;19.60;;
12288;SDS011;6207;49.308;7.336;2022-12-01T06:54:44;24.43;;;18.27;;
12288;SDS011;6207;49.308;7.336;2022-12-01T06:57:11;29.37;;;19.30;;
12288;SDS011;6207;49.308;7.336;2022-12-01T06:59:38;29.53;;;20.20;;
12288;SDS011;6207;49.308;7.336;2022-12-01T07:02:05;30.90;;;19.47;;
12288;SDS011;6207;49.308;7.336;2022-12-01T07:04:32;31.67;;;19.47;;
12288;SDS011;6207;49.308;7.336;2022-12-01T07:06:58;28.80;;;19.40;;
12288;SDS011;6207;49.308;7.336;2022-12-01T07:09:25;23.90;;;16.23;;
12288;SDS011;6207;49.308;7.336;2022-12-01T07:11:52;28.13;;;21.10;;
12288;SDS011;6207;49.308;7.336;2022-12-01T07:14:21;25.30;;;19.63;;
12288;SDS011;6207;49.308;7.336;2022-12-01T07:16:49;26.83;;;19.67;;
12288;SDS011;6207;49.308;7.336;2022-12-01T07:19:16;31.17;;;20.60;;
12288;SDS011;6207;49.308;7.336;2022-12-01T07:21:44;23.20;;;18.17;;
12288;SDS011;6207;49.308;7.336;2022-12-01T07:24:10;22.67;;;18.13;;
12288;SDS011;6207;49.308;7.336;2022-12-01T07:26:37;26.57;;;20.13;;
12288;SDS011;6207;49.308;7.336;2022-12-01T07:29:06;27.53;;;20.30;;
12288;SDS011;6207;49.308;7.336;2022-12-01T07:31:34;25.10;;;18.97;;
12288;SDS011;6207;49.308;7.336;2022-12-01T07:34:02;22.47;;;18.67;;
12288;SDS011;6207;49.308;7.336;2022-12-01T07:36:29;29.37;;;20.67;;
12288;SDS011;6207;49.308;7.336;2022-12-01T07:38:57;25.77;;;19.07;;
12288;SDS011;6207;49.308;7.336;2022-12-01T07:41:24;24.37;;;18.00;;
12288;SDS011;6207;49.308;7.336;2022-12-01T07:43:51;25.17;;;19.23;;
12288;SDS011;6207;49.308;7.336;2022-12-01T07:46:21;29.20;;;20.27;;
12288;SDS011;6207;49.308;7.336;2022-12-01T07:48:50;29.93;;;20.03;;
12288;SDS011;6207;49.308;7.336;2022-12-01T07:51:18;27.70;;;20.80;;
12288;SDS011;6207;49.308;7.336;2022-12-01T07:53:46;26.07;;;21.50;;
12288;SDS011;6207;49.308;7.336;2022-12-01T07:56:14;28.60;;;21.57;;
12288;SDS011;6207;49.308;7.336;2022-12-01T07:58:42;30.70;;;22.13;;
12288;SDS011;6207;49.308;7.336;2022-12-01T08:01:13;32.40;;;21.83;;
12288;SDS011;6207;49.308;7.336;2022-12-01T08:03:42;25.87;;;20.00;;
12288;SDS011;6207;49.308;7.336;2022-12-01T08:06:09;21.63;;;18.60;;
12288;SDS011;6207;49.308;7.336;2022-12-01T08:08:38;23.83;;;19.43;;
12288;SDS011;6207;49.308;7.336;2022-12-01T08:11:08;26.37;;;22.03;;
12288;SDS011;6207;49.308;7.336;2022-12-01T08:13:38;25.43;;;19.33;;
12288;SDS011;6207;49.308;7.336;2022-12-01T08:16:06;26.13;;;20.30;;
12288;SDS011;6207;49.308;7.336;2022-12-01T08:18:36;26.30;;;20.33;;
12288;SDS011;6207;49.308;7.336;2022-12-01T08:21:04;27.73;;;20.60;;
12288;SDS011;6207;49.308;7.336;2022-12-01T08:23:32;26.63;;;20.57;;
12288;SDS011;6207;49.308;7.336;2022-12-01T08:26:00;29.03;;;20.00;;
12288;SDS011;6207;49.308;7.336;2022-12-01T08:28:28;27.13;;;21.10;;
12288;SDS011;6207;49.308;7.336;2022-12-01T08:30:55;27.17;;;20.60;;
12288;SDS011;6207;49.308;7.336;2022-12-01T08:33:24;24.33;;;18.13;;
12288;SDS011;6207;49.308;7.336;2022-12-01T08:35:51;28.63;;;20.90;;
12288;SDS011;6207;49.308;7.336;2022-12-01T08:38:19;29.93;;;21.00;;
12288;SDS011;6207;49.308;7.336;2022-12-01T08:40:46;27.87;;;23.20;;
12288;SDS011;6207;49.308;7.336;2022-12-01T08:43:13;25.57;;;20.70;;
12288;SDS011;6207;49.308;7.336;2022-12-01T08:46:00;32.30;;;24.43;;
12288;SDS011;6207;49.308;7.336;2022-12-01T08:48:27;22.70;;;18.67;;
12288;SDS011;6207;49.308;7.336;2022-12-01T08:51:06;24.63;;;19.70;;
12288;SDS011;6207;49.308;7.336;2022-12-01T08:53:35;21.50;;;19.13;;
12288;SDS011;6207;49.308;7.336;2022-12-01T08:56:15;29.33;;;22.07;;
12288;SDS011;6207;49.308;7.336;2022-12-01T08:58:50;30.50;;;20.30;;
12288;SDS011;6207;49.308;7.336;2022-12-01T09:01:17;24.10;;;19.87;;
12288;SDS011;6207;49.308;7.336;2022-12-01T09:03:45;30.10;;;23.13;;
12288;SDS011;6207;49.308;7.336;2022-12-01T09:06:13;26.77;;;19.37;;
12288;SDS011;6207;49.308;7.336;2022-12-01T09:08:45;24.57;;;17.23;;
12288;SDS011;6207;49.308;7.336;2022-12-01T09:11:15;28.40;;;21.83;;
12288;SDS011;6207;49.308;7.336;2022-12-01T09:13:44;27.20;;;19.47;;
12288;SDS011;6207;49.308;7.336;2022-12-01T09:16:19;28.70;;;20.27;;
12288;SDS011;6207;49.308;7.336;2022-12-01T09:18:46;27.63;;;19.03;;
12288;SDS011;6207;49.308;7.336;2022-12-01T09:21:16;23.63;;;20.43;;
12288;SDS011;6207;49.308;7.336;2022-12-01T09:23:46;31.53;;;23.60;;
12288;SDS011;6207;49.308;7.336;2022-12-01T09:26:13;27.90;;;21.73;;
12288;SDS011;6207;49.308;7.336;2022-12-01T09:28:44;25.13;;;20.47;;
12288;SDS011;6207;49.308;7.336;2022-12-01T09:31:12;31.47;;;23.80;;
12288;SDS011;6207;49.308;7.336;2022-12-01T09:33:40;32.67;;;22.10;;
12288;SDS011;6207;49.308;7.336;2022-12-01T09:36:08;31.97;;;22.93;;
12288;SDS011;6207;49.308;7.336;2022-12-01T09:38:36;32.43;;;23.33;;
12288;SDS011;6207;49.308;7.336;2022-12-01T09:41:13;23.70;;;19.43;;
12288;SDS011;6207;49.308;7.336;2022-12-01T09:46:45;30.13;;;21.40;;
12288;SDS011;6207;49.308;7.336;2022-12-01T09:49:38;26.93;;;20.60;;
12288;SDS011;6207;49.308;7.336;2022-12-01T09:52:26;29.17;;;23.00;;
12288;SDS011;6207;49.308;7.336;2022-12-01T09:54:54;33.07;;;22.77;;
12288;SDS011;6207;49.308;7.336;2022-12-01T10:00:04;27.13;;;23.63;;
12288;SDS011;6207;49.308;7.336;2022-12-01T10:02:38;25.10;;;20.63;;
12288;SDS011;6207;49.308;7.336;2022-12-01T10:05:29;28.40;;;23.23;;
12288;SDS011;6207;49.308;7.336;2022-12-01T10:08:32;21.87;;;19.07;;
12288;SDS011;6207;49.308;7.336;2022-12-01T10:11:05;27.53;;;22.60;;
12288;SDS011;6207;49.308;7.336;2022-12-01T10:13:38;23.73;;;21.37;;
12288;SDS011;6207;49.308;7.336;2022-12-01T10:16:10;24.27;;;21.87;;
12288;SDS011;6207;49.308;7.336;2022-12-01T10:21:32;28.40;;;22.03;;
12288;SDS011;6207;49.308;7.336;2022-12-01T10:32:46;23.63;;;21.27;;
12288;SDS011;6207;49.308;7.336;2022-12-01T10:35:21;25.57;;;22.70;;
12288;SDS011;6207;49.308;7.336;2022-12-01T10:37:59;22.93;;;20.77;;
12288;SDS011;6207;49.308;7.336;2022-12-01T10:40:29;26.23;;;22.50;;
12288;SDS011;6207;49.308;7.336;2022-12-01T10:43:00;18.77;;;17.27;;
12288;SDS011;6207;49.308;7.336;2022-12-01T10:45:29;24.23;;;21.60;;
12288;SDS011;6207;49.308;7.336;2022-12-01T10:48:07;25.60;;;22.83;;
12288;SDS011;6207;49.308;7.336;2022-12-01T10:50:34;23.97;;;21.50;;
12288;SDS011;6207;49.308;7.336;2022-12-01T10:53:02;24.17;;;21.77;;
12288;SDS011;6207;49.308;7.336;2022-12-01T10:55:36;21.37;;;19.13;;
12288;SDS011;6207;49.308;7.336;2022-12-01T10:58:13;23.13;;;20.90;;
12288;SDS011;6207;49.308;7.336;2022-12-01T11:00:42;24.70;;;22.20;;
12288;SDS011;6207;49.308;7.336;2022-12-01T11:03:31;24.17;;;21.57;;
12288;SDS011;6207;49.308;7.336;2022-12-01T11:06:00;21.33;;;19.03;;
12288;SDS011;6207;49.308;7.336;2022-12-01T11:08:40;20.90;;;18.93;;
12288;SDS011;6207;49.308;7.336;2022-12-01T11:13:57;25.23;;;22.83;;
12288;SDS011;6207;49.308;7.336;2022-12-01T11:21:57;23.40;;;21.03;;
12288;SDS011;6207;49.308;7.336;2022-12-01T11:27:15;24.07;;;20.07;;
12288;SDS011;6207;49.308;7.336;2022-12-01T11:29:45;22.53;;;20.40;;
12288;SDS011;6207;49.308;7.336;2022-12-01T11:32:24;25.70;;;23.10;;
12288;SDS011;6207;49.308;7.336;2022-12-01T11:35:00;24.57;;;21.93;;
12288;SDS011;6207;49.308;7.336;2022-12-01T11:37:49;18.97;;;17.47;;
12288;SDS011;6207;49.308;7.336;2022-12-01T11:43:39;25.43;;;22.77;;
12288;SDS011;6207;49.308;7.336;2022-12-01T11:46:11;21.70;;;19.60;;
12288;SDS011;6207;49.308;7.336;2022-12-01T11:48:38;26.13;;;23.47;;
12288;SDS011;6207;49.308;7.336;2022-12-01T11:53:44;21.50;;;19.53;;
12288;SDS011;6207;49.308;7.336;2022-12-01T11:56:13;26.10;;;23.37;;
12288;SDS011;6207;49.308;7.336;2022-12-01T11:58:44;23.60;;;21.60;;
12288;SDS011;6207;49.308;7.336;2022-12-01T12:01:14;27.27;;;24.17;;
12288;SDS011;6207;49.308;7.336;2022-12-01T12:07:11;21.83;;;19.90;;
12288;SDS011;6207;49.308;7.336;2022-12-01T12:10:06;26.70;;;23.97;;
12288;SDS011;6207;49.308;7.336;2022-12-01T12:23:54;25.83;;;23.17;;
12288;SDS011;6207;49.308;7.336;2022-12-01T12:35:06;27.10;;;23.83;;
12288;SDS011;6207;49.308;7.336;2022-12-01T12:37:59;27.97;;;25.17;;
12288;SDS011;6207;49.308;7.336;2022-12-01T12:51:23;29.37;;;26.33;;
12288;SDS011;6207;49.308;7.336;2022-12-01T12:56:50;25.17;;;22.63;;
12288;SDS011;6207;49.308;7.336;2022-12-01T13:02:38;26.10;;;22.90;;
12288;SDS011;6207;49.308;7.336;2022-12-01T13:07:44;23.43;;;21.03;;
12288;SDS011;6207;49.308;7.336;2022-12-01T13:10:15;28.40;;;25.47;;
12288;SDS011;6207;49.308;7.336;2022-12-01T13:13:12;25.27;;;22.70;;
12288;SDS011;6207;49.308;7.336;2022-12-01T13:15:50;24.60;;;22.20;;
12288;SDS011;6207;49.308;7.336;2022-12-01T13:21:10;27.17;;;23.67;;
12288;SDS011;6207;49.308;7.336;2022-12-01T13:23:44;23.37;;;21.27;;
12288;SDS011;6207;49.308;7.336;2022-12-01T13:26:12;28.93;;;26.23;;
12288;SDS011;6207;49.308;7.336;2022-12-01T13:28:49;24.87;;;22.37;;
12288;SDS011;6207;49.308;7.336;2022-12-01T13:31:18;26.20;;;23.63;;
12288;SDS011;6207;49.308;7.336;2022-12-01T13:36:26;24.07;;;21.80;;
12288;SDS011;6207;49.308;7.336;2022-12-01T13:39:18;23.80;;;21.63;;
12288;SDS011;6207;49.308;7.336;2022-12-01T13:42:07;28.43;;;25.63;;
12288;SDS011;6207;49.308;7.336;2022-12-01T13:44:55;25.90;;;23.20;;
12288;SDS011;6207;49.308;7.336;2022-12-01T13:53:12;25.53;;;22.93;;
12288;SDS011;6207;49.308;7.336;2022-12-01T14:06:41;25.27;;;22.53;;
12288;SDS011;6207;49.308;7.336;2022-12-01T14:09:30;25.13;;;22.83;;
12288;SDS011;6207;49.308;7.336;2022-12-01T14:12:03;26.80;;;24.10;;
12288;SDS011;6207;49.308;7.336;2022-12-01T14:14:37;25.63;;;23.03;;
12288;SDS011;6207;49.308;7.336;2022-12-01T14:17:19;23.67;;;21.43;;
12288;SDS011;6207;49.308;7.336;2022-12-01T14:19:53;24.57;;;22.20;;
12288;SDS011;6207;49.308;7.336;2022-12-01T14:22:31;25.93;;;23.50;;
12288;SDS011;6207;49.308;7.336;2022-12-01T14:27:49;27.23;;;24.40;;
12288;SDS011;6207;49.308;7.336;2022-12-01T14:41:59;29.50;;;26.53;;
12288;SDS011;6207;49.308;7.336;2022-12-01T14:47:18;24.67;;;22.23;;
12288;SDS011;6207;49.308;7.336;2022-12-01T14:52:35;25.80;;;23.07;;
12288;SDS011;6207;49.308;7.336;2022-12-01T14:55:06;29.13;;;26.23;;
12288;SDS011;6207;49.308;7.336;2022-12-01T14:57:50;21.30;;;19.77;;
12288;SDS011;6207;49.308;7.336;2022-12-01T15:00:19;24.97;;;22.57;;
12288;SDS011;6207;49.308;7.336;2022-12-01T15:02:56;27.30;;;24.70;;
12288;SDS011;6207;49.308;7.336;2022-12-01T15:05:26;25.47;;;22.83;;
12288;SDS011;6207;49.308;7.336;2022-12-01T15:07:54;25.10;;;22.60;;
12288;SDS011;6207;49.308;7.336;2022-12-01T15:10:51;25.00;;;22.43;;
12288;SDS011;6207;49.308;7.336;2022-12-01T15:13:44;24.70;;;22.40;;
12288;SDS011;6207;49.308;7.336;2022-12-01T15:16:14;24.33;;;21.97;;
12288;SDS011;6207;49.308;7.336;2022-12-01T15:18:43;25.27;;;22.77;;
12288;SDS011;6207;49.308;7.336;2022-12-01T15:21:21;27.77;;;25.07;;
12288;SDS011;6207;49.308;7.336;2022-12-01T15:23:59;25.27;;;22.77;;
12288;SDS011;6207;49.308;7.336;2022-12-01T15:26:32;25.47;;;22.97;;
12288;SDS011;6207;49.308;7.336;2022-12-01T15:29:17;25.77;;;23.30;;
12288;SDS011;6207;49.308;7.336;2022-12-01T15:32:15;25.67;;;23.17;;
12288;SDS011;6207;49.308;7.336;2022-12-01T15:34:43;23.97;;;21.77;;
12288;SDS011;6207;49.308;7.336;2022-12-01T15:37:13;25.07;;;22.67;;
12288;SDS011;6207;49.308;7.336;2022-12-01T15:42:20;26.00;;;23.23;;
12288;SDS011;6207;49.308;7.336;2022-12-01T15:44:56;24.53;;;22.10;;
12288;SDS011;6207;49.308;7.336;2022-12-01T15:47:42;26.23;;;23.63;;
12288;SDS011;6207;49.308;7.336;2022-12-01T15:55:48;23.90;;;21.50;;
12288;SDS011;6207;49.308;7.336;2022-12-01T15:58:24;23.10;;;21.00;;
12288;SDS011;6207;49.308;7.336;2022-12-01T16:00:55;24.20;;;21.90;;
12288;SDS011;6207;49.308;7.336;2022-12-01T16:03:23;24.07;;;21.67;;
12288;SDS011;6207;49.308;7.336;2022-12-01T16:05:50;25.33;;;22.63;;
12288;SDS011;6207;49.308;7.336;2022-12-01T16:08:18;24.40;;;21.90;;
12288;SDS011;6207;49.308;7.336;2022-12-01T16:11:08;24.90;;;22.20;;
12288;SDS011;6207;49.308;7.336;2022-12-01T16:13:47;23.70;;;21.23;;
12288;SDS011;6207;49.308;7.336;2022-12-01T16:21:41;26.73;;;23.97;;
12288;SDS011;6207;49.308;7.336;2022-12-01T16:24:16;25.50;;;22.77;;
12288;SDS011;6207;49.308;7.336;2022-12-01T16:26:48;25.20;;;22.53;;
12288;SDS011;6207;49.308;7.336;2022-12-01T16:29:21;24.87;;;22.33;;
12288;SDS011;6207;49.308;7.336;2022-12-01T16:31:50;26.23;;;23.50;;
12288;SDS011;6207;49.308;7.336;2022-12-01T16:34:38;26.83;;;23.77;;
12288;SDS011;6207;49.308;7.336;2022-12-01T16:37:12;25.60;;;22.97;;
12288;SDS011;6207;49.308;7.336;2022-12-01T16:39:40;26.97;;;22.57;;
12288;SDS011;6207;49.308;7.336;2022-12-01T16:42:11;25.13;;;22.53;;
12288;SDS011;6207;49.308;7.336;2022-12-01T16:44:42;25.60;;;22.97;;
12288;SDS011;6207;49.308;7.336;2022-12-01T16:47:11;26.47;;;23.80;;
12288;SDS011;6207;49.308;7.336;2022-12-01T16:49:41;25.07;;;22.60;;
12288;SDS011;6207;49.308;7.336;2022-12-01T16:52:08;25.73;;;23.03;;
12288;SDS011;6207;49.308;7.336;2022-12-01T16:54:55;26.40;;;23.60;;
12288;SDS011;6207;49.308;7.336;2022-12-01T16:57:22;23.40;;;20.90;;
12288;SDS011;6207;49.308;7.336;2022-12-01T16:59:49;25.27;;;22.77;;
12288;SDS011;6207;49.308;7.336;2022-12-01T17:02:15;24.10;;;21.53;;
12288;SDS011;6207;49.308;7.336;2022-12-01T17:04:42;24.67;;;22.00;;
12288;SDS011;6207;49.308;7.336;2022-12-01T17:07:09;24.70;;;22.20;;
12288;SDS011;6207;49.308;7.336;2022-12-01T17:09:36;25.80;;;23.10;;
12288;SDS011;6207;49.308;7.336;2022-12-01T17:12:03;26.43;;;23.30;;
12288;SDS011;6207;49.308;7.336;2022-12-01T17:14:30;23.10;;;20.80;;
12288;SDS011;6207;49.308;7.336;2022-12-01T17:16:56;25.13;;;22.50;;
12288;SDS011;6207;49.308;7.336;2022-12-01T17:19:23;24.37;;;21.87;;
12288;SDS011;6207;49.308;7.336;2022-12-01T17:21:50;25.30;;;22.77;;
12288;SDS011;6207;49.308;7.336;2022-12-01T17:24:18;24.97;;;22.37;;
12288;SDS011;6207;49.308;7.336;2022-12-01T17:26:45;26.17;;;23.23;;
12288;SDS011;6207;49.308;7.336;2022-12-01T17:29:12;23.83;;;21.63;;
12288;SDS011;6207;49.308;7.336;2022-12-01T17:31:39;26.10;;;23.30;;
12288;SDS011;6207;49.308;7.336;2022-12-01T17:34:05;24.87;;;22.20;;
12288;SDS011;6207;49.308;7.336;2022-12-01T17:36:32;24.67;;;22.30;;
12288;SDS011;6207;49.308;7.336;2022-12-01T17:38:59;25.97;;;23.27;;